Time,TemperatureF,DewpointF,PressureIn,WindDirection,WindDirectionDegrees,WindSpeedMPH,WindSpeedGustMPH,Humidity,HourlyPrecipIn,Conditions,Clouds,dailyrainin,SoftwareType,DateUTC
2015-04-27 00:04:00,38.5,33.5,30.22,East,90,0.0,0.0,82,0.00,,,0.00,WUHU216HW,2015-04-27 06:04:00,
2015-04-27 00:30:00,37.6,32.6,30.22,East,90,0.0,0.0,82,0.00,,,0.00,WUHU216HW,2015-04-27 06:30:00,
2015-04-27 00:35:00,37.6,32.6,30.22,East,90,0.0,0.0,82,0.00,,,0.00,WUHU216HW,2015-04-27 06:35:00,
2015-04-27 00:59:00,36.5,31.5,30.22,East,90,0.0,0.0,82,0.00,,,0.00,WUHU216HW,2015-04-27 06:59:00,
2015-04-27 01:04:00,36.5,31.5,30.22,East,90,0.0,0.0,82,0.00,,,0.00,WUHU216HW,2015-04-27 07:04:00,
2015-04-27 01:30:00,36.4,31.7,30.22,East,90,0.0,0.0,83,0.00,,,0.00,WUHU216HW,2015-04-27 07:30:00,
2015-04-27 01:35:00,36.4,31.7,30.22,East,90,0.0,0.0,83,0.00,,,0.00,WUHU216HW,2015-04-27 07:35:00,
2015-04-27 02:00:00,36.4,32.0,30.21,East,90,0.0,0.0,84,0.00,,,0.00,WUHU216HW,2015-04-27 08:00:00,
2015-04-27 02:05:00,36.4,32.0,30.21,East,90,0.0,0.0,84,0.00,,,0.00,WUHU216HW,2015-04-27 08:05:00,
2015-04-27 02:30:00,36.4,32.0,30.21,East,90,0.0,0.0,84,0.00,,,0.00,WUHU216HW,2015-04-27 08:30:00,
2015-04-27 02:35:00,36.4,32.0,30.21,East,90,0.0,0.0,84,0.00,,,0.00,WUHU216HW,2015-04-27 08:35:00,
2015-04-27 03:00:00,36.4,32.0,30.22,East,90,0.0,0.0,84,0.00,,,0.00,WUHU216HW,2015-04-27 09:00:00,
2015-04-27 03:05:00,36.4,32.0,30.22,East,90,0.0,0.0,84,0.00,,,0.00,WUHU216HW,2015-04-27 09:05:00,
2015-04-27 03:30:00,36.4,32.0,30.22,SSW,203,0.4,0.4,84,0.00,,,0.00,WUHU216HW,2015-04-27 09:30:00,
2015-04-27 03:35:00,36.4,32.0,30.22,SSW,203,0.4,0.4,84,0.00,,,0.00,WUHU216HW,2015-04-27 09:35:00,
2015-04-27 04:00:00,36.5,32.1,30.22,SSW,203,0.0,0.0,84,0.00,,,0.00,WUHU216HW,2015-04-27 10:00:00,
2015-04-27 04:05:00,36.5,32.1,30.22,SSW,203,0.0,0.0,84,0.00,,,0.00,WUHU216HW,2015-04-27 10:05:00,
2015-04-27 04:30:00,36.4,32.0,30.23,SSW,203,0.0,0.0,84,0.00,,,0.00,WUHU216HW,2015-04-27 10:30:00,
2015-04-27 04:35:00,36.4,32.0,30.23,SSW,203,0.0,0.0,84,0.00,,,0.00,WUHU216HW,2015-04-27 10:35:00,
2015-04-27 04:59:00,35.8,31.4,30.23,SSW,203,0.0,0.0,84,0.00,,,0.00,WUHU216HW,2015-04-27 10:59:00,
2015-04-27 05:04:00,35.8,31.4,30.23,SSW,203,0.0,0.0,84,0.00,,,0.00,WUHU216HW,2015-04-27 11:04:00,
2015-04-27 05:30:00,35.1,30.7,30.24,SSW,203,0.0,0.0,84,0.00,,,0.00,WUHU216HW,2015-04-27 11:30:00,
2015-04-27 05:35:00,35.1,30.7,30.24,SSW,203,0.0,0.0,84,0.00,,,0.00,WUHU216HW,2015-04-27 11:35:00,
2015-04-27 05:59:00,34.2,29.8,30.24,SSW,203,0.0,0.0,84,0.00,,,0.00,WUHU216HW,2015-04-27 11:59:00,
2015-04-27 06:04:00,34.2,29.8,30.24,SSW,203,0.0,0.0,84,0.00,,,0.00,WUHU216HW,2015-04-27 12:04:00,
2015-04-27 06:30:00,33.5,28.8,30.25,SSW,203,0.0,0.0,83,0.00,,,0.00,WUHU216HW,2015-04-27 12:30:00,
2015-04-27 06:35:00,33.5,28.8,30.25,SSW,203,0.0,0.0,83,0.00,,,0.00,WUHU216HW,2015-04-27 12:35:00,
2015-04-27 06:59:00,33.8,29.4,30.25,SSW,203,0.0,0.0,84,0.00,,,0.00,WUHU216HW,2015-04-27 12:59:00,
2015-04-27 07:05:00,33.8,29.4,30.25,SSW,203,0.0,0.0,84,0.00,,,0.00,WUHU216HW,2015-04-27 13:05:00,
2015-04-27 07:30:00,35.6,31.2,30.26,SSW,203,1.1,1.1,84,0.00,,,0.00,WUHU216HW,2015-04-27 13:30:00,
2015-04-27 07:35:00,35.6,31.2,30.26,SSW,203,1.1,1.1,84,0.00,,,0.00,WUHU216HW,2015-04-27 13:35:00,
2015-04-27 08:00:00,38.3,34.2,30.28,South,180,1.8,1.8,85,0.00,,,0.00,WUHU216HW,2015-04-27 14:00:00,
2015-04-27 08:05:00,38.3,34.2,30.28,South,180,1.8,1.8,85,0.00,,,0.00,WUHU216HW,2015-04-27 14:05:00,
2015-04-27 08:30:00,43.0,37.9,30.28,WSW,248,1.6,1.6,82,0.00,,,0.00,WUHU216HW,2015-04-27 14:30:00,
2015-04-27 08:35:00,43.0,37.9,30.28,WSW,248,1.6,1.6,82,0.00,,,0.00,WUHU216HW,2015-04-27 14:35:00,
2015-04-27 08:59:00,48.1,40.4,30.29,WNW,293,2.5,2.5,75,0.00,,,0.00,WUHU216HW,2015-04-27 14:59:00,
2015-04-27 09:04:00,48.1,40.4,30.29,WNW,293,2.5,2.5,75,0.00,,,0.00,WUHU216HW,2015-04-27 15:04:00,
2015-04-27 09:30:00,50.8,40.6,30.28,WSW,248,3.4,3.4,68,0.00,,,0.00,WUHU216HW,2015-04-27 15:30:00,
2015-04-27 09:35:00,50.8,40.6,30.28,WSW,248,3.4,3.4,68,0.00,,,0.00,WUHU216HW,2015-04-27 15:35:00,
2015-04-27 09:59:00,53.5,41.1,30.28,SSW,203,2.5,2.5,63,0.00,,,0.00,WUHU216HW,2015-04-27 15:59:00,
2015-04-27 10:05:00,53.5,41.1,30.28,SSW,203,2.5,2.5,63,0.00,,,0.00,WUHU216HW,2015-04-27 16:05:00,
2015-04-27 10:30:00,55.8,41.2,30.28,South,180,1.3,1.3,58,0.00,,,0.00,WUHU216HW,2015-04-27 16:30:00,
2015-04-27 10:35:00,55.8,41.2,30.28,South,180,1.3,1.3,58,0.00,,,0.00,WUHU216HW,2015-04-27 16:35:00,
2015-04-27 10:59:00,55.8,40.2,30.28,SSW,203,0.4,0.4,56,0.00,,,0.00,WUHU216HW,2015-04-27 16:59:00,
2015-04-27 11:04:00,55.8,40.2,30.28,SSW,203,0.4,0.4,56,0.00,,,0.00,WUHU216HW,2015-04-27 17:04:00,
2015-04-27 11:30:00,56.7,40.2,30.27,NNW,338,2.5,2.5,54,0.00,,,0.00,WUHU216HW,2015-04-27 17:30:00,
2015-04-27 11:35:00,56.7,40.2,30.27,NNW,338,2.5,2.5,54,0.00,,,0.00,WUHU216HW,2015-04-27 17:35:00,
2015-04-27 11:59:00,59.0,41.0,30.26,North,0,2.0,2.0,51,0.00,,,0.00,WUHU216HW,2015-04-27 17:59:00,
2015-04-27 12:05:00,59.0,41.0,30.26,North,0,2.0,2.0,51,0.00,,,0.00,WUHU216HW,2015-04-27 18:05:00,
2015-04-27 12:30:00,60.3,41.7,30.26,NW,315,1.8,1.8,50,0.00,,,0.00,WUHU216HW,2015-04-27 18:30:00,
2015-04-27 12:35:00,60.3,41.7,30.26,NW,315,1.8,1.8,50,0.00,,,0.00,WUHU216HW,2015-04-27 18:35:00,
2015-04-27 12:59:00,62.5,41.9,30.24,SE,135,2.0,2.0,47,0.00,,,0.00,WUHU216HW,2015-04-27 18:59:00,
2015-04-27 13:05:00,62.5,41.9,30.24,SE,135,2.0,2.0,47,0.00,,,0.00,WUHU216HW,2015-04-27 19:05:00,
2015-04-27 13:30:00,62.5,41.3,30.24,WSW,248,2.0,2.0,46,0.00,,,0.00,WUHU216HW,2015-04-27 19:30:00,
2015-04-27 13:35:00,62.5,41.3,30.24,WSW,248,2.0,2.0,46,0.00,,,0.00,WUHU216HW,2015-04-27 19:35:00,
2015-04-27 13:59:00,65.3,41.6,30.23,NW,315,0.9,0.9,42,0.00,,,0.00,WUHU216HW,2015-04-27 19:59:00,
2015-04-27 14:05:00,65.3,41.6,30.23,NW,315,0.9,0.9,42,0.00,,,0.00,WUHU216HW,2015-04-27 20:05:00,
2015-04-27 14:30:00,63.5,39.3,30.21,WNW,293,2.5,2.5,41,0.00,,,0.00,WUHU216HW,2015-04-27 20:30:00,
2015-04-27 14:35:00,63.5,39.3,30.21,WNW,293,2.5,2.5,41,0.00,,,0.00,WUHU216HW,2015-04-27 20:35:00,
2015-04-27 15:00:00,64.8,40.0,30.21,NNE,23,2.2,2.2,40,0.00,,,0.00,WUHU216HW,2015-04-27 21:00:00,
2015-04-27 15:05:00,64.8,40.0,30.21,NNE,23,2.2,2.2,40,0.00,,,0.00,WUHU216HW,2015-04-27 21:05:00,
2015-04-27 15:30:00,65.9,40.1,30.21,South,180,2.0,2.0,39,0.00,,,0.00,WUHU216HW,2015-04-27 21:30:00,
2015-04-27 15:35:00,65.9,40.1,30.21,South,180,2.0,2.0,39,0.00,,,0.00,WUHU216HW,2015-04-27 21:35:00,
2015-04-27 16:05:00,65.3,38.3,30.20,East,90,1.8,1.8,37,0.00,,,0.00,WUHU216HW,2015-04-27 22:05:00,
2015-04-27 16:30:00,65.7,38.6,30.20,NE,45,1.1,1.1,37,0.00,,,0.00,WUHU216HW,2015-04-27 22:30:00,
2015-04-27 16:35:00,65.7,38.6,30.20,NE,45,1.1,1.1,37,0.00,,,0.00,WUHU216HW,2015-04-27 22:35:00,
2015-04-27 17:00:00,68.8,39.8,30.20,WSW,248,3.4,3.4,35,0.00,,,0.00,WUHU216HW,2015-04-27 23:00:00,
2015-04-27 17:05:00,68.8,39.8,30.20,WSW,248,3.4,3.4,35,0.00,,,0.00,WUHU216HW,2015-04-27 23:05:00,
2015-04-27 17:30:00,66.2,36.9,30.20,SSE,158,1.8,1.8,34,0.00,,,0.00,WUHU216HW,2015-04-27 23:30:00,
2015-04-27 17:35:00,66.2,36.9,30.20,SSE,158,1.8,1.8,34,0.00,,,0.00,WUHU216HW,2015-04-27 23:35:00,
2015-04-27 17:59:00,64.3,36.5,30.19,NNE,23,0.4,0.4,36,0.00,,,0.00,WUHU216HW,2015-04-27 23:59:00,
2015-04-27 18:04:00,64.3,36.5,30.19,NNE,23,0.4,0.4,36,0.00,,,0.00,WUHU216HW,2015-04-28 00:04:00,
2015-04-27 18:30:00,66.2,38.3,30.19,SSE,158,3.4,3.4,36,0.00,,,0.00,WUHU216HW,2015-04-28 00:30:00,
2015-04-27 18:35:00,66.2,38.3,30.19,SSE,158,3.4,3.4,36,0.00,,,0.00,WUHU216HW,2015-04-28 00:35:00,
2015-04-27 18:59:00,66.2,38.3,30.19,SE,135,0.4,0.4,36,0.00,,,0.00,WUHU216HW,2015-04-28 00:59:00,
2015-04-27 19:05:00,66.2,38.3,30.19,SE,135,0.4,0.4,36,0.00,,,0.00,WUHU216HW,2015-04-28 01:05:00,
2015-04-27 19:30:00,64.3,37.3,30.19,SSE,158,1.8,1.8,37,0.00,,,0.00,WUHU216HW,2015-04-28 01:30:00,
2015-04-27 19:35:00,64.3,37.3,30.19,SSE,158,1.8,1.8,37,0.00,,,0.00,WUHU216HW,2015-04-28 01:35:00,
2015-04-27 19:59:00,61.4,36.1,30.19,SSE,158,0.0,0.0,39,0.00,,,0.00,WUHU216HW,2015-04-28 01:59:00,
2015-04-27 20:05:00,61.4,36.1,30.19,SSE,158,0.0,0.0,39,0.00,,,0.00,WUHU216HW,2015-04-28 02:05:00,
2015-04-27 20:30:00,58.9,35.7,30.20,SSE,158,0.4,0.4,42,0.00,,,0.00,WUHU216HW,2015-04-28 02:30:00,
2015-04-27 20:35:00,58.9,35.7,30.20,SSE,158,0.4,0.4,42,0.00,,,0.00,WUHU216HW,2015-04-28 02:35:00,
2015-04-27 20:59:00,56.9,35.1,30.20,SSE,158,1.1,1.1,44,0.00,,,0.00,WUHU216HW,2015-04-28 02:59:00,
2015-04-27 21:04:00,56.9,35.1,30.20,SSE,158,1.1,1.1,44,0.00,,,0.00,WUHU216HW,2015-04-28 03:04:00,
2015-04-27 21:30:00,55.1,35.1,30.21,SSE,158,0.0,0.0,47,0.00,,,0.00,WUHU216HW,2015-04-28 03:30:00,
2015-04-27 21:35:00,55.1,35.1,30.21,SSE,158,0.0,0.0,47,0.00,,,0.00,WUHU216HW,2015-04-28 03:35:00,
2015-04-27 21:59:00,53.5,34.2,30.22,SSW,203,0.0,0.0,48,0.00,,,0.00,WUHU216HW,2015-04-28 03:59:00,
2015-04-27 22:04:00,53.5,34.2,30.22,SSW,203,0.0,0.0,48,0.00,,,0.00,WUHU216HW,2015-04-28 04:04:00,
2015-04-27 22:30:00,52.0,34.0,30.21,SSE,158,1.3,1.3,50,0.00,,,0.00,WUHU216HW,2015-04-28 04:30:00,
2015-04-27 22:35:00,52.0,34.0,30.21,SSE,158,1.3,1.3,50,0.00,,,0.00,WUHU216HW,2015-04-28 04:35:00,
2015-04-27 22:59:00,51.3,34.3,30.22,SE,135,1.8,1.8,52,0.00,,,0.00,WUHU216HW,2015-04-28 04:59:00,
2015-04-27 23:04:00,51.3,34.3,30.22,SE,135,1.8,1.8,52,0.00,,,0.00,WUHU216HW,2015-04-28 05:04:00,
2015-04-27 23:30:00,50.6,34.0,30.22,South,180,4.0,4.0,53,0.00,,,0.00,WUHU216HW,2015-04-28 05:30:00,
2015-04-27 23:35:00,50.6,34.0,30.22,South,180,4.0,4.0,53,0.00,,,0.00,WUHU216HW,2015-04-28 05:35:00,